Time;durP1;ratioP1;P1;durP2;ratioP2;P2;SDS_P1;SDS_P2;PMS_P1;PMS_P2;Temp;Humidity;BMP_temperature;BMP_pressure;BME280_temperature;BME280_humidity;BME280_pressure;Samples;Min_cycle;Max_cycle;Signal;HPM_P1;HPM_P2
2022/03/16 00:00:21;;;;;;;19.42;12.82;;;;;;;6.19;100.00;102520.56;5091033;28;20066;-30
2022/03/16 00:02:50;;;;;;;16.35;11.55;;;;;;;6.16;100.00;102523.81;5091755;28;20047;-28
2022/03/16 00:05:18;;;;;;;16.77;11.02;;;;;;;6.16;100.00;102523.81;5091001;28;20508;-28
2022/03/16 00:07:46;;;;;;;17.02;11.85;;;;;;;6.16;100.00;102527.41;5091164;28;20040;-29
2022/03/16 00:10:14;;;;;;;18.02;12.98;;;;;;;6.14;100.00;102525.94;5095593;28;20040;-30
2022/03/16 00:12:43;;;;;;;18.10;12.95;;;;;;;6.13;100.00;102527.03;5095354;28;20481;-30
2022/03/16 00:15:11;;;;;;;16.65;12.52;;;;;;;6.13;100.00;102525.09;5094194;28;20028;-30
2022/03/16 00:17:40;;;;;;;16.38;11.15;;;;;;;6.12;100.00;102523.41;5095328;28;20058;-36
2022/03/16 00:20:09;;;;;;;18.17;12.65;;;;;;;6.10;100.00;102524.72;5094995;28;20044;-30
2022/03/16 00:22:37;;;;;;;16.20;12.23;;;;;;;6.07;100.00;102526.00;5095553;28;20139;-31
2022/03/16 00:25:07;;;;;;;20.65;12.95;;;;;;;6.08;100.00;102533.25;5095635;28;20044;-31
2022/03/16 00:27:35;;;;;;;19.02;13.65;;;;;;;6.09;100.00;102536.88;5095077;28;20047;-27
2022/03/16 00:30:03;;;;;;;18.90;13.45;;;;;;;6.09;100.00;102529.41;5095297;28;20093;-29
2022/03/16 00:32:30;;;;;;;19.60;13.63;;;;;;;6.10;100.00;102535.78;5093810;28;20059;-28
2022/03/16 00:34:59;;;;;;;19.08;13.57;;;;;;;6.09;100.00;102539.63;5094516;28;20060;-30
2022/03/16 00:37:28;;;;;;;15.57;12.50;;;;;;;6.09;100.00;102536.88;5095394;28;20173;-31
2022/03/16 00:39:56;;;;;;;21.73;13.43;;;;;;;6.10;100.00;102539.41;5094994;28;20414;-30
2022/03/16 00:42:24;;;;;;;17.42;12.55;;;;;;;6.09;100.00;102539.63;5093163;28;20139;-37
2022/03/16 00:44:52;;;;;;;17.33;12.63;;;;;;;6.08;100.00;102549.03;5094746;28;20048;-32
2022/03/16 00:47:19;;;;;;;18.83;13.10;;;;;;;6.03;100.00;102544.16;5093776;28;20048;-31
2022/03/16 00:49:50;;;;;;;17.60;13.10;;;;;;;6.01;100.00;102543.53;5093327;28;20093;-29
2022/03/16 00:52:19;;;;;;;21.33;14.52;;;;;;;5.99;100.00;102542.94;5095010;28;20142;-29
2022/03/16 00:54:46;;;;;;;18.48;12.88;;;;;;;6.01;100.00;102545.47;5093438;28;20398;-28
2022/03/16 00:57:14;;;;;;;21.30;12.52;;;;;;;5.98;100.00;102540.41;5092748;28;20052;-30
2022/03/16 00:59:42;;;;;;;15.52;11.52;;;;;;;5.98;100.00;102545.94;5094931;28;20059;-29
2022/03/16 01:02:10;;;;;;;16.75;12.45;;;;;;;5.94;100.00;102539.16;5093202;28;20079;-27
2022/03/16 01:04:38;;;;;;;17.73;12.60;;;;;;;5.93;100.00;102552.16;5085688;28;20052;-29
2022/03/16 01:07:06;;;;;;;18.00;12.25;;;;;;;5.91;100.00;102543.22;5094609;28;20134;-28
2022/03/16 01:09:35;;;;;;;16.60;12.00;;;;;;;5.91;100.00;102546.00;5092423;28;20047;-28
2022/03/16 01:12:04;;;;;;;17.73;12.35;;;;;;;5.90;100.00;102540.69;5094364;28;20051;-27
2022/03/16 01:14:32;;;;;;;17.60;13.10;;;;;;;5.88;100.00;102550.06;5093359;28;20062;-28
2022/03/16 01:17:00;;;;;;;13.48;10.85;;;;;;;5.84;100.00;102534.94;5092412;28;20140;-27
2022/03/16 01:19:31;;;;;;;15.65;10.85;;;;;;;5.82;100.00;102537.06;5093937;28;20073;-30
2022/03/16 01:21:59;;;;;;;17.50;12.68;;;;;;;5.81;100.00;102535.38;5093804;28;20299;-29
2022/03/16 01:24:27;;;;;;;17.17;12.15;;;;;;;5.80;100.00;102539.22;5093538;28;20127;-31
2022/03/16 01:26:56;;;;;;;16.02;12.00;;;;;;;5.78;100.00;102537.78;5093912;28;20122;-28
2022/03/16 01:29:24;;;;;;;16.88;12.68;;;;;;;5.75;100.00;102530.75;5094118;28;20052;-28
2022/03/16 01:31:53;;;;;;;17.52;12.50;;;;;;;5.72;100.00;102528.44;5092741;28;20123;-31
2022/03/16 01:34:24;;;;;;;15.77;11.48;;;;;;;5.71;100.00;102535.06;5092962;28;20143;-35
2022/03/16 01:36:55;;;;;;;17.02;12.77;;;;;;;5.70;100.00;102530.59;5093897;28;20124;-33
2022/03/16 01:39:22;;;;;;;19.92;14.18;;;;;;;5.72;100.00;102533.13;5093856;28;20485;-38
2022/03/16 01:41:51;;;;;;;17.15;13.18;;;;;;;5.73;100.00;102532.06;5093996;28;20105;-29
2022/03/16 01:44:47;;;;;;;19.50;14.20;;;;;;;5.74;100.00;102531.84;5093976;28;20135;-28
2022/03/16 01:47:16;;;;;;;18.20;13.75;;;;;;;5.72;100.00;102525.66;5088775;28;20048;-28
2022/03/16 01:49:46;;;;;;;16.27;12.40;;;;;;;5.74;100.00;102528.22;5094183;28;20058;-28
2022/03/16 01:52:16;;;;;;;18.48;12.73;;;;;;;5.72;100.00;102528.44;5092885;28;20106;-28
2022/03/16 01:54:44;;;;;;;20.50;14.52;;;;;;;5.71;100.00;102531.44;5094130;28;20047;-30
2022/03/16 01:57:12;;;;;;;20.10;15.38;;;;;;;5.71;100.00;102540.59;5091870;28;20052;-31
2022/03/16 01:59:42;;;;;;;18.95;15.07;;;;;;;5.73;100.00;102537.59;5091748;28;20090;-27
2022/03/16 02:02:10;;;;;;;17.05;13.02;;;;;;;5.73;100.00;102543.97;5092423;28;20048;-28
2022/03/16 02:04:39;;;;;;;19.52;14.93;;;;;;;5.74;100.00;102537.38;5092146;28;20046;-27
2022/03/16 02:07:07;;;;;;;20.90;16.20;;;;;;;5.73;100.00;102540.38;5093042;28;20451;-29
2022/03/16 02:09:35;;;;;;;21.25;15.50;;;;;;;5.72;100.00;102533.97;5093229;28;20501;-28
2022/03/16 02:12:03;;;;;;;17.90;14.52;;;;;;;5.71;100.00;102539.75;5093210;28;20080;-31
2022/03/16 02:14:31;;;;;;;15.73;12.95;;;;;;;5.69;100.00;102537.19;5092486;28;20051;-29
2022/03/16 02:17:01;;;;;;;19.83;15.45;;;;;;;5.65;100.00;102538.72;5093334;28;20072;-28
2022/03/16 02:19:29;;;;;;;17.25;13.95;;;;;;;5.63;100.00;102538.09;5092933;28;20048;-29
2022/03/16 02:22:01;;;;;;;22.90;16.25;;;;;;;5.62;100.00;102541.94;5092600;28;20043;-27
2022/03/16 02:24:30;;;;;;;22.08;15.70;;;;;;;5.61;100.00;102531.06;5093315;28;20516;-29
2022/03/16 02:26:59;;;;;;;20.77;15.77;;;;;;;5.58;100.00;102529.63;5092175;28;20580;-30
2022/03/16 02:29:27;;;;;;;22.73;16.83;;;;;;;5.56;100.00;102537.31;5093073;28;20048;-34
2022/03/16 02:31:55;;;;;;;16.83;13.18;;;;;;;5.54;100.00;102536.69;5092998;28;20047;-36
2022/03/16 02:34:23;;;;;;;19.15;14.43;;;;;;;5.52;100.00;102530.53;5092181;28;20051;-34
2022/03/16 02:36:51;;;;;;;22.08;17.00;;;;;;;5.51;100.00;102534.38;5092807;28;20075;-30
2022/03/16 02:39:19;;;;;;;18.85;13.65;;;;;;;5.50;100.00;102530.75;5092373;28;20049;-30
2022/03/16 02:41:50;;;;;;;24.13;17.10;;;;;;;5.50;100.00;102536.28;5092139;28;20078;-30
2022/03/16 02:44:18;;;;;;;21.27;16.67;;;;;;;5.47;100.00;102533.09;5092837;28;20421;-29
2022/03/16 02:46:46;;;;;;;21.55;16.30;;;;;;;5.45;100.00;102527.78;5092698;28;20055;-29
2022/03/16 02:49:14;;;;;;;19.80;15.75;;;;;;;5.44;100.00;102531.63;5091960;28;20048;-28
2022/03/16 02:51:42;;;;;;;22.63;16.08;;;;;;;5.42;100.00;102525.47;5092841;28;20044;-34
2022/03/16 02:54:09;;;;;;;20.40;14.60;;;;;;;5.41;100.00;102528.47;5092187;28;20044;-28
2022/03/16 02:56:37;;;;;;;21.92;18.80;;;;;;;5.40;100.00;102529.53;5088865;28;20055;-30
2022/03/16 02:59:06;;;;;;;25.30;18.95;;;;;;;5.39;100.00;102527.88;5092445;28;20036;-28
2022/03/16 03:01:34;;;;;;;25.13;17.45;;;;;;;5.39;100.00;102525.94;5092078;28;20043;-30
2022/03/16 03:04:02;;;;;;;24.13;18.27;;;;;;;5.39;100.00;102523.19;5091951;28;20058;-28
2022/03/16 03:06:30;;;;;;;23.42;16.83;;;;;;;5.41;100.00;102528.47;5092151;28;20047;-28
2022/03/16 03:08:58;;;;;;;24.90;19.98;;;;;;;5.41;100.00;102528.47;5091482;28;20040;-30
2022/03/16 03:11:27;;;;;;;27.98;21.67;;;;;;;5.42;100.00;102528.22;5092549;28;20043;-30
2022/03/16 03:13:55;;;;;;;26.10;20.10;;;;;;;5.42;100.00;102524.63;5083717;28;20043;-29
2022/03/16 03:16:24;;;;;;;22.50;17.13;;;;;;;5.42;100.00;102530.16;5091388;28;20408;-28
2022/03/16 03:18:52;;;;;;;26.38;19.00;;;;;;;5.41;100.00;102526.53;5091996;28;20075;-29
2022/03/16 03:21:20;;;;;;;26.80;19.17;;;;;;;5.42;100.00;102524.63;5091945;28;20044;-29
2022/03/16 03:23:47;;;;;;;27.67;20.67;;;;;;;5.41;100.00;102520.16;5091746;28;20051;-28
2022/03/16 03:26:15;;;;;;;26.75;19.77;;;;;;;5.42;100.00;102519.94;5092009;28;20531;-32
2022/03/16 03:28:43;;;;;;;26.83;18.98;;;;;;;5.42;100.00;102519.94;5091736;28;20044;-28
2022/03/16 03:31:10;;;;;;;29.08;21.65;;;;;;;5.42;100.00;102521.84;5080090;28;20052;-30
2022/03/16 03:33:40;;;;;;;26.63;20.55;;;;;;;5.42;100.00;102525.47;5089734;28;20573;-28
2022/03/16 03:36:07;;;;;;;27.90;20.48;;;;;;;5.43;100.00;102531.84;5089662;28;20075;-28
2022/03/16 03:38:35;;;;;;;31.42;21.25;;;;;;;5.42;100.00;102525.47;5089382;28;20052;-29
2022/03/16 03:41:04;;;;;;;28.80;20.77;;;;;;;5.43;100.00;102529.09;5085926;28;20102;-28
2022/03/16 03:43:31;;;;;;;29.98;19.33;;;;;;;5.43;100.00;102531.84;5089225;28;20067;-28
2022/03/16 03:45:59;;;;;;;30.63;20.30;;;;;;;5.42;100.00;102521.84;5089440;28;20102;-28
2022/03/16 03:48:27;;;;;;;35.15;22.67;;;;;;;5.40;100.00;102510.16;5091186;28;20060;-28
2022/03/16 03:50:56;;;;;;;31.08;20.63;;;;;;;5.41;100.00;102521.00;5091410;28;20051;-30
2022/03/16 03:53:24;;;;;;;33.45;21.98;;;;;;;5.41;100.00;102509.94;5091476;28;20052;-30
2022/03/16 03:55:52;;;;;;;32.53;22.73;;;;;;;5.42;100.00;102496.94;5091886;28;20056;-29
2022/03/16 03:58:20;;;;;;;33.08;21.05;;;;;;;5.42;100.00;102491.41;5089641;28;20048;-30
2022/03/16 04:00:49;;;;;;;26.95;17.48;;;;;;;5.41;100.00;102493.31;5091314;28;20044;-28
2022/03/16 04:03:17;;;;;;;27.38;17.25;;;;;;;5.43;100.00;102493.09;5091646;28;20481;-28
2022/03/16 04:05:45;;;;;;;34.08;21.52;;;;;;;5.41;100.00;102490.56;5090888;28;20412;-28
2022/03/16 04:08:14;;;;;;;31.13;20.15;;;;;;;5.41;100.00;102495.25;5091439;28;20040;-29
2022/03/16 04:10:42;;;;;;;39.28;24.63;;;;;;;5.43;100.00;102493.09;5091133;28;20469;-30
2022/03/16 04:13:09;;;;;;;32.78;20.40;;;;;;;5.43;100.00;102487.56;5090652;28;20043;-28
2022/03/16 04:15:37;;;;;;;32.97;22.55;;;;;;;5.42;100.00;102477.56;5091575;28;20087;-30
2022/03/16 04:18:05;;;;;;;33.72;21.48;;;;;;;5.43;100.00;102482.88;5091252;28;20067;-32
2022/03/16 04:20:33;;;;;;;36.83;24.05;;;;;;;5.43;100.00;102477.34;5090727;28;20054;-33
2022/03/16 04:23:01;;;;;;;39.00;24.90;;;;;;;5.43;100.00;102479.25;5091378;28;20075;-35
2022/03/16 04:25:30;;;;;;;33.92;22.77;;;;;;;5.42;100.00;102475.63;5091116;28;20048;-31
2022/03/16 04:27:57;;;;;;;34.90;23.00;;;;;;;5.39;100.00;102469.72;5091140;28;20059;-28
2022/03/16 04:30:25;;;;;;;27.20;18.42;;;;;;;5.35;100.00;102474.00;5091276;28;20047;-29
2022/03/16 04:32:53;;;;;;;32.30;20.65;;;;;;;5.28;100.00;102473.22;5091219;28;20125;-29
2022/03/16 04:35:21;;;;;;;32.53;21.17;;;;;;;5.23;100.00;102475.78;5090530;28;20048;-29
2022/03/16 04:37:49;;;;;;;33.03;21.55;;;;;;;5.18;100.00;102473.72;5091076;28;20401;-30
2022/03/16 04:40:17;;;;;;;31.17;21.98;;;;;;;5.13;100.00;102477.16;5089009;28;20482;-28
2022/03/16 04:42:46;;;;;;;31.95;21.55;;;;;;;5.11;100.00;102479.28;5089064;28;20074;-29
2022/03/16 04:45:14;;;;;;;36.22;22.75;;;;;;;5.10;100.00;102482.28;5087201;28;20073;-27
2022/03/16 04:47:42;;;;;;;35.20;24.45;;;;;;;5.08;100.00;102482.50;5089630;28;20040;-27
2022/03/16 04:50:10;;;;;;;29.70;20.33;;;;;;;5.07;100.00;102478.03;5090496;28;20058;-28
2022/03/16 04:52:44;;;;;;;29.42;21.15;;;;;;;5.07;100.00;102482.72;5090323;28;20051;-28
2022/03/16 04:55:12;;;;;;;30.27;21.60;;;;;;;5.04;100.00;102477.63;5092227;28;20052;-28
2022/03/16 04:57:40;;;;;;;33.72;22.20;;;;;;;5.05;100.00;102484.84;5094859;28;20055;-29
2022/03/16 05:00:10;;;;;;;32.08;20.30;;;;;;;5.05;100.00;102479.31;5094536;28;20051;-27
2022/03/16 05:02:38;;;;;;;36.55;23.92;;;;;;;5.04;100.00;102480.41;5094282;28;20067;-27
2022/03/16 05:05:06;;;;;;;35.53;23.02;;;;;;;5.03;100.00;102476.78;5094708;28;20055;-29
2022/03/16 05:07:34;;;;;;;35.63;23.63;;;;;;;5.02;100.00;102472.31;5094381;28;20477;-27
2022/03/16 05:10:02;;;;;;;29.98;20.02;;;;;;;5.01;100.00;102481.69;5094186;28;20109;-31
2022/03/16 05:12:37;;;;;;;32.95;22.52;;;;;;;5.01;100.00;102478.91;5093281;28;20040;-27
2022/03/16 05:15:07;;;;;;;34.08;23.67;;;;;;;4.99;100.00;102481.09;5094820;28;20051;-30
2022/03/16 05:17:36;;;;;;;30.90;20.50;;;;;;;4.97;100.00;102487.91;5093828;28;20366;-28
2022/03/16 05:20:05;;;;;;;35.10;23.40;;;;;;;4.96;100.00;102489.81;5094276;28;20052;-28
2022/03/16 05:22:40;;;;;;;35.97;23.85;;;;;;;4.97;100.00;102490.69;5093498;28;20066;-29
2022/03/16 05:25:09;;;;;;;36.35;22.55;;;;;;;4.95;100.00;102490.91;5094536;28;20424;-28
2022/03/16 05:27:36;;;;;;;35.92;22.52;;;;;;;4.97;100.00;102487.91;5094122;28;20040;-28
2022/03/16 05:30:06;;;;;;;39.17;25.02;;;;;;;4.96;100.00;102491.75;5093334;28;20404;-28
2022/03/16 05:32:34;;;;;;;36.42;23.73;;;;;;;4.96;100.00;102497.28;5093796;28;20163;-29
2022/03/16 05:35:04;;;;;;;33.70;22.00;;;;;;;4.93;100.00;102498.56;5093389;28;20513;-28
2022/03/16 05:37:32;;;;;;;40.92;25.38;;;;;;;4.91;100.00;102497.94;5093809;28;20060;-28
2022/03/16 05:39:59;;;;;;;36.13;24.15;;;;;;;4.90;100.00;102499.00;5093873;28;20457;-28
2022/03/16 05:42:27;;;;;;;35.88;22.33;;;;;;;4.91;100.00;102508.16;5093640;28;20068;-31
2022/03/16 05:44:55;;;;;;;38.28;24.10;;;;;;;4.91;100.00;102505.38;5092743;28;20461;-28
2022/03/16 05:47:24;;;;;;;41.88;25.67;;;;;;;4.91;100.00;102502.63;5092904;28;20060;-28
2022/03/16 05:49:53;;;;;;;39.53;25.02;;;;;;;4.91;100.00;102499.84;5090749;28;20377;-28
2022/03/16 05:52:23;;;;;;;33.95;21.42;;;;;;;4.91;100.00;102511.75;5092134;28;20048;-28
2022/03/16 05:54:53;;;;;;;32.88;20.48;;;;;;;4.92;100.00;102510.69;5091170;28;20054;-32
2022/03/16 05:57:21;;;;;;;35.67;22.42;;;;;;;4.91;100.00;102506.22;5090292;28;20047;-32
2022/03/16 05:59:49;;;;;;;39.63;24.02;;;;;;;4.91;100.00;102514.53;5091145;28;20062;-28
2022/03/16 06:02:17;;;;;;;41.17;24.17;;;;;;;4.92;100.00;102512.63;5091471;28;20070;-30
2022/03/16 06:04:45;;;;;;;33.90;21.35;;;;;;;4.91;100.00;102517.28;5091314;28;20050;-36
2022/03/16 06:07:13;;;;;;;37.55;22.17;;;;;;;4.92;100.00;102527.28;5091435;28;20059;-32
2022/03/16 06:09:44;;;;;;;30.10;19.55;;;;;;;4.93;100.00;102526.22;5091844;28;20047;-31
2022/03/16 06:12:12;;;;;;;36.72;23.15;;;;;;;4.93;100.00;102520.69;5091565;28;20066;-30
2022/03/16 06:14:40;;;;;;;37.22;23.10;;;;;;;4.94;100.00;102527.06;5092253;28;20036;-30
2022/03/16 06:17:08;;;;;;;36.90;21.58;;;;;;;4.95;100.00;102526.84;5089982;28;20044;-28
2022/03/16 06:19:35;;;;;;;34.08;21.27;;;;;;;4.96;100.00;102522.19;5091566;28;20044;-33
2022/03/16 06:22:04;;;;;;;39.35;24.08;;;;;;;4.99;100.00;102522.59;5090939;28;20131;-28
2022/03/16 06:24:31;;;;;;;37.72;23.27;;;;;;;5.01;100.00;102528.72;5092254;28;20452;-28
2022/03/16 06:27:01;;;;;;;38.58;23.58;;;;;;;5.03;100.00;102531.25;5081389;28;20052;-31
2022/03/16 06:29:29;;;;;;;37.63;21.52;;;;;;;5.05;100.00;102531.88;5093210;28;20063;-28
2022/03/16 06:31:57;;;;;;;35.72;22.77;;;;;;;5.06;100.00;102526.13;5091341;28;20075;-29
2022/03/16 06:34:25;;;;;;;36.88;22.92;;;;;;;5.10;100.00;102530.16;5091860;28;20437;-29
2022/03/16 06:36:53;;;;;;;35.50;21.98;;;;;;;5.13;100.00;102531.66;5085509;28;20133;-28
2022/03/16 06:39:21;;;;;;;38.17;23.23;;;;;;;5.16;100.00;102533.97;5090625;28;20134;-27
2022/03/16 06:41:49;;;;;;;38.92;23.77;;;;;;;5.18;100.00;102535.44;5091442;28;20048;-27
2022/03/16 06:44:18;;;;;;;43.97;25.23;;;;;;;5.20;100.00;102535.19;5092417;28;20143;-27
2022/03/16 06:46:47;;;;;;;39.67;23.90;;;;;;;5.23;100.00;102534.75;5092341;28;20044;-29
2022/03/16 06:49:15;;;;;;;37.42;23.60;;;;;;;5.26;100.00;102530.69;5090509;28;20562;-28
2022/03/16 06:51:43;;;;;;;37.30;22.63;;;;;;;5.29;100.00;102538.56;5092391;28;20064;-29
2022/03/16 06:54:11;;;;;;;34.85;21.42;;;;;;;5.31;100.00;102534.50;5091789;28;20048;-29
2022/03/16 06:56:38;;;;;;;38.70;23.52;;;;;;;5.35;100.00;102538.53;5092585;28;20420;-28
2022/03/16 06:59:06;;;;;;;36.25;23.17;;;;;;;5.39;100.00;102531.47;5090668;28;20059;-30
2022/03/16 07:01:35;;;;;;;39.83;24.42;;;;;;;5.47;100.00;102527.56;5091890;28;20059;-28
2022/03/16 07:04:03;;;;;;;34.33;20.65;;;;;;;5.60;100.00;102524.69;5092198;28;20123;-29
2022/03/16 07:06:31;;;;;;;41.40;25.65;;;;;;;5.74;100.00;102536.53;5092211;28;20097;-27
2022/03/16 07:08:59;;;;;;;37.05;24.05;;;;;;;5.92;100.00;102541.28;5091926;28;20142;-28
2022/03/16 07:11:26;;;;;;;41.10;24.92;;;;;;;6.17;100.00;102534.66;5092363;28;20055;-27
2022/03/16 07:16:41;;;;;;;34.45;21.95;;;;;;;6.87;100.00;102539.78;5091636;28;20054;-27
2022/03/16 07:19:09;;;;;;;37.47;24.15;;;;;;;7.18;100.00;102528.50;5091413;28;20047;-31
2022/03/16 07:21:37;;;;;;;34.80;23.10;;;;;;;7.44;100.00;102532.78;5091895;28;20036;-27
2022/03/16 07:24:06;;;;;;;34.05;22.35;;;;;;;7.50;100.00;102540.16;5091495;28;20055;-33
2022/03/16 07:26:34;;;;;;;33.95;22.15;;;;;;;7.44;100.00;102531.94;5092136;28;20040;-34
2022/03/16 07:29:01;;;;;;;30.85;21.60;;;;;;;7.41;100.00;102529.63;5091630;28;20055;-33
2022/03/16 07:31:30;;;;;;;32.33;20.83;;;;;;;7.44;100.00;102531.94;5091965;28;20109;-27
2022/03/16 07:34:00;;;;;;;34.33;22.80;;;;;;;7.58;100.00;102525.09;5092043;28;20068;-28
2022/03/16 07:36:28;;;;;;;37.05;23.33;;;;;;;7.86;100.00;102522.47;5091448;28;20185;-29
2022/03/16 07:38:56;;;;;;;33.75;21.73;;;;;;;8.25;100.00;102515.31;5091809;28;20081;-30
2022/03/16 07:41:24;;;;;;;33.70;22.20;;;;;;;8.68;100.00;102514.06;5091558;28;20489;-29
2022/03/16 07:43:51;;;;;;;31.20;21.65;;;;;;;9.06;100.00;102509.81;5090944;28;20054;-27
2022/03/16 07:46:19;;;;;;;31.77;21.70;;;;;;;9.51;100.00;102507.03;5091894;28;20052;-30
2022/03/16 07:48:47;;;;;;;38.35;22.92;;;;;;;9.97;100.00;102512.28;5091333;28;20398;-30
2022/03/16 07:51:16;;;;;;;31.40;21.23;;;;;;;10.30;100.00;102505.00;5091318;28;20544;-35
2022/03/16 07:53:44;;;;;;;34.03;22.60;;;;;;;10.43;100.00;102509.34;5091606;28;20048;-30
2022/03/16 07:56:11;;;;;;;31.85;21.40;;;;;;;10.54;100.00;102512.03;5091103;28;20481;-29
2022/03/16 07:58:41;;;;;;;30.25;20.52;;;;;;;10.65;100.00;102504.63;5090962;28;20056;-29
2022/03/16 08:01:08;;;;;;;29.77;20.73;;;;;;;10.93;100.00;102493.25;5091607;28;20048;-28
2022/03/16 08:03:36;;;;;;;33.88;22.10;;;;;;;11.17;100.00;102492.97;5091447;28;20086;-28
2022/03/16 08:06:04;;;;;;;32.83;22.50;;;;;;;11.16;100.00;102497.72;5089552;28;20056;-34
2022/03/16 08:08:39;;;;;;;32.97;22.50;;;;;;;11.14;100.00;102501.88;5091300;28;20477;-32
2022/03/16 08:11:07;;;;;;;33.63;22.50;;;;;;;11.09;100.00;102497.06;5091433;28;20044;-30
2022/03/16 08:13:36;;;;;;;35.67;23.42;;;;;;;11.07;100.00;102496.47;5090973;28;20489;-29
2022/03/16 08:16:05;;;;;;;31.70;21.77;;;;;;;11.07;100.00;102479.72;5089840;28;20489;-28
2022/03/16 08:18:34;;;;;;;32.75;22.10;;;;;;;11.11;100.00;102483.69;5090838;28;20051;-28
2022/03/16 08:21:02;;;;;;;39.33;24.73;;;;;;;11.14;100.00;102483.16;5091202;28;20043;-28
2022/03/16 08:23:30;;;;;;;34.83;24.10;;;;;;;11.25;100.00;102489.69;5090212;28;20079;-29
2022/03/16 08:26:02;;;;;;;33.60;23.50;;;;;;;11.55;100.00;102494.72;5080115;28;20052;-29
2022/03/16 08:28:30;;;;;;;35.05;24.83;;;;;;;11.73;100.00;102486.78;5091378;28;20040;-30
2022/03/16 08:31:01;;;;;;;35.55;23.58;;;;;;;11.73;97.73;102488.72;5094370;28;20048;-35
2022/03/16 08:33:28;;;;;;;36.15;24.05;;;;;;;11.61;96.92;102477.72;5094552;28;20048;-29
2022/03/16 08:35:57;;;;;;;33.70;23.55;;;;;;;11.65;97.78;102467.69;5094759;28;20505;-28
2022/03/16 08:38:25;;;;;;;32.92;21.98;;;;;;;11.79;97.76;102467.28;5084128;28;20059;-28
2022/03/16 08:40:53;;;;;;;33.95;22.75;;;;;;;11.72;95.21;102468.31;5093371;28;20052;-28
2022/03/16 08:43:22;;;;;;;35.88;22.70;;;;;;;11.81;96.47;102463.06;5095235;28;20071;-29
2022/03/16 08:45:51;;;;;;;31.75;21.33;;;;;;;11.71;94.62;102465.78;5094641;28;20054;-28
2022/03/16 08:48:19;;;;;;;28.30;20.02;;;;;;;11.70;93.94;102462.13;5090928;28;20052;-28
2022/03/16 08:50:46;;;;;;;33.65;22.40;;;;;;;11.72;93.09;102456.28;5094858;28;20048;-27
2022/03/16 08:53:15;;;;;;;29.83;22.00;;;;;;;11.69;91.64;102456.81;5094930;28;20054;-33
2022/03/16 08:55:42;;;;;;;29.40;19.85;;;;;;;11.74;93.33;102451.28;5094322;28;20496;-28
2022/03/16 08:58:13;;;;;;;29.95;20.20;;;;;;;11.81;92.34;102451.03;5094679;28;20060;-30
2022/03/16 09:00:42;;;;;;;29.85;20.25;;;;;;;11.66;88.79;102446.16;5094214;28;20055;-28
2022/03/16 09:03:10;;;;;;;27.70;19.30;;;;;;;11.66;91.01;102441.41;5094362;28;20080;-28
2022/03/16 09:05:38;;;;;;;27.17;19.00;;;;;;;11.57;90.90;102443.03;5094544;28;20078;-30
2022/03/16 09:08:06;;;;;;;27.13;18.48;;;;;;;11.49;91.05;102440.72;5094045;28;20553;-29
2022/03/16 09:10:34;;;;;;;24.48;17.55;;;;;;;11.47;90.67;102442.09;5094520;28;20067;-28
2022/03/16 09:13:04;;;;;;;28.00;17.95;;;;;;;11.54;90.98;102439.94;5094072;28;20418;-33
2022/03/16 09:15:37;;;;;;;23.80;16.90;;;;;;;11.52;89.85;102439.34;5094134;28;20404;-28
2022/03/16 09:18:09;;;;;;;23.95;16.20;;;;;;;11.49;89.22;102437.91;5094527;28;20071;-27
2022/03/16 09:20:37;;;;;;;23.73;17.07;;;;;;;11.59;89.64;102428.78;5094301;28;20052;-27
2022/03/16 09:23:04;;;;;;;23.75;15.73;;;;;;;11.71;87.87;102432.22;5093505;28;20489;-29
2022/03/16 09:25:32;;;;;;;23.80;15.30;;;;;;;11.89;86.21;102437.41;5094245;28;20044;-29
2022/03/16 09:28:00;;;;;;;21.23;14.25;;;;;;;11.88;85.82;102427.34;5093778;28;20036;-32
2022/03/16 09:30:28;;;;;;;23.08;14.77;;;;;;;11.89;85.76;102434.63;5093844;28;20417;-31
2022/03/16 09:32:57;;;;;;;17.98;13.65;;;;;;;11.94;85.95;102431.03;5094059;28;20110;-28
2022/03/16 09:35:27;;;;;;;19.05;13.48;;;;;;;11.95;84.42;102432.69;5092234;28;20048;-34
2022/03/16 09:37:55;;;;;;;19.25;13.70;;;;;;;11.96;84.04;102435.22;5093563;28;20047;-28
2022/03/16 09:40:24;;;;;;;17.60;12.88;;;;;;;12.06;83.89;102426.03;5093477;28;20052;-28
2022/03/16 09:42:54;;;;;;;17.85;12.52;;;;;;;12.24;83.97;102431.19;5092566;28;20028;-30
2022/03/16 09:45:23;;;;;;;17.83;13.50;;;;;;;12.32;79.84;102433.47;5094030;28;20037;-28
2022/03/16 09:47:51;;;;;;;16.77;12.05;;;;;;;12.46;79.82;102422.59;5093341;28;20052;-31
2022/03/16 09:50:20;;;;;;;15.30;11.43;;;;;;;12.60;77.98;102417.31;5093338;28;20086;-29
2022/03/16 09:52:49;;;;;;;17.02;11.35;;;;;;;12.74;77.85;102424.13;5094147;28;20090;-28
2022/03/16 09:55:18;;;;;;;16.98;11.68;;;;;;;12.85;75.51;102427.78;5093351;28;20055;-30
2022/03/16 09:57:46;;;;;;;13.88;10.70;;;;;;;12.95;74.68;102423.03;5093397;28;20048;-29
2022/03/16 10:00:14;;;;;;;16.30;11.15;;;;;;;13.22;74.39;102417.22;5093551;28;20054;-33
2022/03/16 10:02:42;;;;;;;15.02;11.63;;;;;;;13.30;71.59;102419.47;5093425;28;20075;-29
2022/03/16 10:05:10;;;;;;;16.98;11.95;;;;;;;13.25;70.23;102419.47;5092746;28;20048;-30
2022/03/16 10:07:38;;;;;;;15.93;12.10;;;;;;;13.17;67.23;102402.38;5093626;28;20044;-28
2022/03/16 10:15:39;;;;;;;16.38;12.80;;;;;;;13.61;65.79;102408.25;5093076;28;20040;-29
2022/03/16 10:18:07;;;;;;;15.95;11.55;;;;;;;13.53;67.36;102408.81;5092965;28;20123;-29
2022/03/16 10:20:36;;;;;;;15.18;10.85;;;;;;;13.59;68.98;102400.09;5093312;28;20052;-29
2022/03/16 10:23:06;;;;;;;14.00;11.07;;;;;;;13.66;66.52;102413.84;5093004;28;20047;-30
2022/03/16 10:25:38;;;;;;;14.20;11.65;;;;;;;13.65;67.33;102400.94;5092573;28;20051;-28
2022/03/16 10:28:11;;;;;;;15.48;11.93;;;;;;;13.82;66.31;102407.09;5092911;28;20042;-30
2022/03/16 10:30:41;;;;;;;16.25;11.93;;;;;;;13.91;67.37;102394.19;5093425;28;20051;-34
2022/03/16 10:33:09;;;;;;;16.80;12.32;;;;;;;13.96;66.67;102407.38;5092521;28;20076;-28
2022/03/16 10:35:54;;;;;;;15.25;11.82;;;;;;;14.04;66.08;102404.78;5092853;28;20071;-30
2022/03/16 10:38:22;;;;;;;14.52;11.20;;;;;;;14.06;65.29;102408.16;5092654;28;20051;-28
2022/03/16 10:40:54;;;;;;;17.10;12.32;;;;;;;14.05;65.45;102412.09;5090981;28;20473;-28
2022/03/16 10:49:07;;;;;;;15.90;11.80;;;;;;;14.11;65.12;102410.97;5092360;28;20085;-28
2022/03/16 10:51:35;;;;;;;13.90;10.85;;;;;;;14.02;65.02;102409.84;5092693;28;20056;-29
2022/03/16 10:54:25;;;;;;;14.70;11.23;;;;;;;14.02;65.08;102417.44;5084635;28;20604;-32
2022/03/16 10:56:56;;;;;;;16.00;12.02;;;;;;;14.10;63.63;102420.50;5092595;28;20051;-28
2022/03/16 10:59:29;;;;;;;15.15;11.25;;;;;;;14.34;65.73;102403.03;5092106;28;20052;-29
2022/03/16 11:02:02;;;;;;;14.20;11.23;;;;;;;14.37;63.74;102402.47;5092056;28;20472;-29
2022/03/16 11:04:32;;;;;;;14.48;11.00;;;;;;;14.45;64.51;102387.81;5092254;28;20408;-28
2022/03/16 11:07:01;;;;;;;14.23;10.85;;;;;;;14.48;63.08;102390.91;5091124;28;20056;-29
2022/03/16 11:09:29;;;;;;;12.48;10.15;;;;;;;14.47;63.10;102391.19;5091855;28;20492;-30
2022/03/16 11:14:47;;;;;;;13.13;10.32;;;;;;;14.47;62.63;102391.19;5091716;28;20516;-29
2022/03/16 11:17:15;;;;;;;10.85;8.85;;;;;;;14.41;63.05;102389.53;5092455;28;20416;-30
2022/03/16 11:19:45;;;;;;;12.38;9.07;;;;;;;14.18;61.81;102381.75;5091690;28;20493;-30
2022/03/16 11:22:16;;;;;;;11.40;8.82;;;;;;;14.16;61.92;102376.44;5091432;28;20509;-37
2022/03/16 11:24:47;;;;;;;10.38;8.85;;;;;;;14.05;60.56;102377.56;5092201;28;20134;-28
2022/03/16 11:27:31;;;;;;;10.35;8.50;;;;;;;14.02;61.10;102383.75;5092003;28;20048;-28
2022/03/16 11:30:11;;;;;;;11.30;8.55;;;;;;;14.11;60.66;102371.66;5091619;28;20085;-28
2022/03/16 11:32:40;;;;;;;12.02;9.30;;;;;;;14.32;60.85;102364.00;5091590;28;20843;-29